Time;durP1;ratioP1;P1;durP2;ratioP2;P2;SDS_P1;SDS_P2;PMS_P1;PMS_P2;Temp;Humidity;BMP_temperature;BMP_pressure;BME280_temperature;BME280_humidity;BME280_pressure;Samples;Min_cycle;Max_cycle;Signal;HPM_P1;HPM_P2
2021/05/19 00:02:05;;;;;;;1.12;1.02;;;;;;;19.95;51.94;100404.77;;;;-56
2021/05/19 00:05:06;;;;;;;1.00;1.00;;;;;;;19.93;51.97;100411.02;;;;-56
2021/05/19 00:08:05;;;;;;;1.01;1.00;;;;;;;19.93;51.94;100407.85;;;;-57
2021/05/19 00:11:05;;;;;;;1.00;1.00;;;;;;;19.91;52.01;100411.09;;;;-61
2021/05/19 00:14:06;;;;;;;1.23;1.08;;;;;;;19.90;51.97;100419.72;;;;-57
2021/05/19 00:17:05;;;;;;;1.07;1.07;;;;;;;19.89;52.03;100415.47;;;;-56
2021/05/19 00:20:06;;;;;;;0.99;0.98;;;;;;;19.88;52.05;100416.86;;;;-56
2021/05/19 00:23:06;;;;;;;1.03;1.00;;;;;;;19.88;51.99;100419.53;;;;-57
2021/05/19 00:26:05;;;;;;;1.05;1.05;;;;;;;19.87;52.00;100418.08;;;;-59
2021/05/19 00:29:08;;;;;;;1.00;1.00;;;;;;;19.86;52.00;100415.96;;;;-61
2021/05/19 00:32:06;;;;;;;1.54;1.09;;;;;;;19.84;52.01;100417.50;;;;-61
2021/05/19 00:35:05;;;;;;;1.25;0.95;;;;;;;19.84;52.07;100419.67;;;;-60
2021/05/19 00:38:06;;;;;;;1.00;1.00;;;;;;;19.83;52.02;100418.22;;;;-60
2021/05/19 00:41:05;;;;;;;0.93;0.93;;;;;;;19.82;52.05;100423.08;;;;-59
2021/05/19 00:44:05;;;;;;;0.95;0.95;;;;;;;19.81;52.02;100419.91;;;;-60
2021/05/19 00:47:06;;;;;;;1.13;1.05;;;;;;;19.79;51.99;100418.52;;;;-59
2021/05/19 00:50:05;;;;;;;0.93;0.93;;;;;;;19.78;52.00;100412.83;;;;-59
2021/05/19 00:53:05;;;;;;;1.17;1.09;;;;;;;19.78;52.03;100409.42;;;;-52
2021/05/19 00:56:06;;;;;;;0.98;0.98;;;;;;;19.77;52.10;100407.37;;;;-52
2021/05/19 00:59:05;;;;;;;0.99;0.95;;;;;;;19.76;52.07;100408.43;;;;-52
2021/05/19 01:02:05;;;;;;;1.05;1.00;;;;;;;19.75;52.06;100408.17;;;;-52
2021/05/19 01:05:06;;;;;;;1.00;1.00;;;;;;;19.74;52.03;100404.94;;;;-52
2021/05/19 01:11:06;;;;;;;0.95;0.95;;;;;;;19.73;52.11;100403.37;;;;-52
2021/05/19 01:14:05;;;;;;;1.13;1.05;;;;;;;19.72;52.02;100402.56;;;;-52
2021/05/19 01:17:06;;;;;;;1.15;1.10;;;;;;;19.71;52.08;100400.68;;;;-52
2021/05/19 01:20:05;;;;;;;1.00;1.00;;;;;;;19.70;52.05;100402.52;;;;-52
2021/05/19 01:23:05;;;;;;;1.27;1.17;;;;;;;19.69;52.07;100401.77;;;;-52
2021/05/19 01:26:06;;;;;;;1.00;1.00;;;;;;;19.69;52.08;100407.22;;;;-52
2021/05/19 01:29:06;;;;;;;1.22;1.12;;;;;;;19.68;52.12;100408.77;;;;-52
2021/05/19 01:32:05;;;;;;;1.00;1.00;;;;;;;19.67;52.10;100410.22;;;;-52
2021/05/19 01:35:05;;;;;;;1.00;1.00;;;;;;;19.66;52.13;100410.95;;;;-52
2021/05/19 01:38:05;;;;;;;0.99;0.99;;;;;;;19.65;52.10;100405.58;;;;-51
2021/05/19 01:41:05;;;;;;;1.12;1.05;;;;;;;19.63;52.12;100407.63;;;;-51
2021/05/19 01:44:05;;;;;;;1.06;1.01;;;;;;;19.63;52.11;100412.31;;;;-51
2021/05/19 01:47:07;;;;;;;1.00;1.00;;;;;;;19.63;52.15;100411.93;;;;-50
2021/05/19 01:50:05;;;;;;;1.34;1.09;;;;;;;19.62;52.10;100404.77;;;;-52
2021/05/19 01:53:05;;;;;;;1.14;1.10;;;;;;;19.61;52.15;100403.84;;;;-52
2021/05/19 01:56:06;;;;;;;1.00;1.00;;;;;;;19.60;52.13;100406.78;;;;-57
2021/05/19 01:59:05;;;;;;;1.98;1.05;;;;;;;19.60;52.18;100410.77;;;;-57
2021/05/19 02:02:05;;;;;;;0.90;0.90;;;;;;;19.59;52.15;100408.50;;;;-51
2021/05/19 02:05:05;;;;;;;0.96;0.96;;;;;;;19.57;52.18;100411.98;;;;-51
2021/05/19 02:08:05;;;;;;;1.01;1.00;;;;;;;19.57;52.15;100410.36;;;;-51
2021/05/19 02:11:05;;;;;;;1.07;0.99;;;;;;;19.56;52.16;100417.41;;;;-51
2021/05/19 02:14:06;;;;;;;1.05;1.05;;;;;;;19.56;52.13;100418.22;;;;-51
2021/05/19 02:17:05;;;;;;;0.97;0.97;;;;;;;19.55;52.16;100421.80;;;;-51
2021/05/19 02:20:05;;;;;;;1.00;1.00;;;;;;;19.55;52.16;100421.20;;;;-51
2021/05/19 02:23:05;;;;;;;0.90;0.90;;;;;;;19.54;52.20;100421.94;;;;-51
2021/05/19 02:26:05;;;;;;;1.12;1.10;;;;;;;19.53;52.20;100424.15;;;;-51
2021/05/19 02:29:06;;;;;;;1.10;1.01;;;;;;;19.53;52.19;100429.81;;;;-57
2021/05/19 02:32:05;;;;;;;0.97;0.97;;;;;;;19.52;52.21;100432.66;;;;-57
2021/05/19 02:35:05;;;;;;;1.05;1.02;;;;;;;19.51;52.22;100423.08;;;;-56
2021/05/19 02:38:05;;;;;;;0.98;0.98;;;;;;;19.51;52.14;100425.69;;;;-57
2021/05/19 02:41:05;;;;;;;1.07;1.05;;;;;;;19.51;52.19;100423.63;;;;-57
2021/05/19 02:44:06;;;;;;;1.00;1.00;;;;;;;19.49;52.20;100426.56;;;;-57
2021/05/19 02:47:05;;;;;;;0.96;0.96;;;;;;;19.49;52.25;100427.63;;;;-52
2021/05/19 02:50:05;;;;;;;1.21;1.11;;;;;;;19.48;52.21;100422.40;;;;-52
2021/05/19 02:53:05;;;;;;;1.01;0.96;;;;;;;19.48;52.22;100423.86;;;;-57
2021/05/19 02:56:05;;;;;;;1.06;1.01;;;;;;;19.47;52.17;100422.73;;;;-57
2021/05/19 02:59:05;;;;;;;0.90;0.90;;;;;;;19.46;52.22;100427.67;;;;-56
2021/05/19 03:02:05;;;;;;;1.10;1.10;;;;;;;19.46;52.18;100428.89;;;;-57
2021/05/19 03:05:05;;;;;;;1.13;1.03;;;;;;;19.46;52.19;100429.22;;;;-57
2021/05/19 03:08:06;;;;;;;0.91;0.91;;;;;;;19.45;52.21;100433.85;;;;-56
2021/05/19 03:11:05;;;;;;;1.01;0.93;;;;;;;19.44;52.27;100433.75;;;;-56
2021/05/19 03:14:05;;;;;;;1.08;0.99;;;;;;;19.44;52.23;100437.41;;;;-51
2021/05/19 03:17:06;;;;;;;1.10;1.02;;;;;;;19.43;52.24;100440.17;;;;-51
2021/05/19 03:20:05;;;;;;;1.10;1.09;;;;;;;19.42;52.24;100442.13;;;;-52
2021/05/19 03:23:05;;;;;;;1.01;1.01;;;;;;;19.42;52.21;100449.02;;;;-52
2021/05/19 03:26:05;;;;;;;1.00;1.00;;;;;;;19.41;52.26;100449.27;;;;-52
2021/05/19 03:29:05;;;;;;;0.89;0.89;;;;;;;19.41;52.25;100447.73;;;;-51
2021/05/19 03:32:05;;;;;;;1.01;1.01;;;;;;;19.40;52.19;100450.22;;;;-51
2021/05/19 03:35:05;;;;;;;0.90;0.90;;;;;;;19.39;52.21;100455.59;;;;-50
2021/05/19 03:38:05;;;;;;;1.02;1.01;;;;;;;19.39;52.24;100460.38;;;;-51
2021/05/19 03:41:06;;;;;;;1.11;1.05;;;;;;;19.39;52.22;100466.64;;;;-51
2021/05/19 03:44:05;;;;;;;1.00;1.00;;;;;;;19.37;52.26;100466.70;;;;-51
2021/05/19 03:47:05;;;;;;;1.19;1.10;;;;;;;19.37;52.24;100473.38;;;;-51
2021/05/19 03:50:05;;;;;;;0.95;0.92;;;;;;;19.36;52.24;100476.77;;;;-50
2021/05/19 03:53:05;;;;;;;0.82;0.82;;;;;;;19.35;52.25;100482.30;;;;-52
2021/05/19 03:56:05;;;;;;;1.00;1.00;;;;;;;19.35;52.23;100485.22;;;;-50
2021/05/19 03:59:05;;;;;;;1.05;1.05;;;;;;;19.35;52.21;100492.78;;;;-50
2021/05/19 04:02:05;;;;;;;1.00;1.00;;;;;;;19.34;52.19;100494.47;;;;-50
2021/05/19 04:05:06;;;;;;;0.90;0.90;;;;;;;19.34;52.20;100493.73;;;;-51
2021/05/19 04:08:05;;;;;;;1.02;1.02;;;;;;;19.33;52.26;100497.31;;;;-51
2021/05/19 04:11:06;;;;;;;1.09;1.00;;;;;;;19.32;52.27;100499.76;;;;-51
2021/05/19 04:14:06;;;;;;;1.23;1.10;;;;;;;19.32;52.28;100503.50;;;;-50
2021/05/19 04:17:05;;;;;;;1.03;1.03;;;;;;;19.31;52.29;100501.84;;;;-51
2021/05/19 04:20:05;;;;;;;0.90;0.90;;;;;;;19.31;52.25;100500.88;;;;-51
2021/05/19 04:23:05;;;;;;;0.93;0.93;;;;;;;19.29;52.29;100499.23;;;;-50
2021/05/19 04:26:07;;;;;;;1.00;1.00;;;;;;;19.29;52.27;100503.12;;;;-51
2021/05/19 04:29:05;;;;;;;0.89;0.89;;;;;;;19.29;52.22;100509.39;;;;-51
2021/05/19 04:32:05;;;;;;;1.01;1.01;;;;;;;19.28;52.24;100509.20;;;;-51
2021/05/19 04:35:05;;;;;;;0.95;0.95;;;;;;;19.27;52.21;100509.05;;;;-51
2021/05/19 04:38:05;;;;;;;0.94;0.94;;;;;;;19.27;52.30;100512.54;;;;-51
2021/05/19 04:41:05;;;;;;;0.90;0.90;;;;;;;19.27;52.31;100509.62;;;;-51
2021/05/19 04:44:05;;;;;;;1.00;1.00;;;;;;;19.26;52.28;100513.77;;;;-51
2021/05/19 04:47:05;;;;;;;1.13;1.05;;;;;;;19.26;52.31;100513.20;;;;-57
2021/05/19 04:50:05;;;;;;;1.00;1.00;;;;;;;19.25;52.26;100516.27;;;;-57
2021/05/19 04:53:06;;;;;;;1.02;1.01;;;;;;;19.25;52.25;100518.13;;;;-57
2021/05/19 04:56:05;;;;;;;1.20;1.10;;;;;;;19.25;52.28;100525.45;;;;-56
2021/05/19 04:59:05;;;;;;;1.03;1.01;;;;;;;19.23;52.19;100530.87;;;;-57
2021/05/19 05:02:06;;;;;;;1.45;1.00;;;;;;;19.23;52.29;100530.14;;;;-57
2021/05/19 05:05:05;;;;;;;0.95;0.95;;;;;;;19.23;52.27;100535.09;;;;-56
2021/05/19 05:08:05;;;;;;;0.91;0.90;;;;;;;19.23;52.25;100532.74;;;;-57
2021/05/19 05:11:05;;;;;;;0.97;0.97;;;;;;;19.21;52.31;100533.77;;;;-57
2021/05/19 05:14:05;;;;;;;1.01;1.01;;;;;;;19.21;52.23;100534.75;;;;-52
2021/05/19 05:17:05;;;;;;;1.02;1.02;;;;;;;19.21;52.23;100536.78;;;;-52
2021/05/19 05:20:05;;;;;;;1.10;1.10;;;;;;;19.22;52.18;100539.89;;;;-50
2021/05/19 05:23:05;;;;;;;1.00;1.00;;;;;;;19.21;52.19;100542.38;;;;-50
2021/05/19 05:26:05;;;;;;;0.90;0.90;;;;;;;19.22;52.20;100545.50;;;;-50
2021/05/19 05:29:05;;;;;;;1.05;1.05;;;;;;;19.23;52.13;100547.77;;;;-51
2021/05/19 05:32:05;;;;;;;0.99;0.99;;;;;;;19.24;52.15;100552.27;;;;-51
2021/05/19 05:35:05;;;;;;;0.90;0.90;;;;;;;19.24;52.08;100557.86;;;;-50
2021/05/19 05:38:05;;;;;;;1.00;0.96;;;;;;;19.25;52.12;100556.32;;;;-51
2021/05/19 05:41:06;;;;;;;0.96;0.96;;;;;;;19.25;52.02;100559.00;;;;-50
2021/05/19 05:44:05;;;;;;;1.00;1.00;;;;;;;19.27;52.15;100559.75;;;;-52
2021/05/19 05:47:05;;;;;;;1.00;1.00;;;;;;;19.28;52.03;100560.39;;;;-56
2021/05/19 05:50:06;;;;;;;0.98;0.98;;;;;;;19.28;51.99;100556.60;;;;-59
2021/05/19 05:53:05;;;;;;;0.95;0.95;;;;;;;19.31;51.89;100556.38;;;;-52
2021/05/19 05:56:05;;;;;;;0.99;0.99;;;;;;;19.32;51.90;100556.88;;;;-58
2021/05/19 05:59:05;;;;;;;0.92;0.92;;;;;;;19.34;51.88;100554.19;;;;-59
2021/05/19 06:02:06;;;;;;;0.90;0.90;;;;;;;19.34;51.88;100557.55;;;;-51
2021/05/19 06:05:05;;;;;;;0.91;0.91;;;;;;;19.35;51.87;100555.44;;;;-52
2021/05/19 06:08:05;;;;;;;0.93;0.93;;;;;;;19.36;51.86;100552.17;;;;-51
2021/05/19 06:11:07;;;;;;;1.05;1.05;;;;;;;19.37;51.85;100556.83;;;;-56
2021/05/19 06:14:05;;;;;;;0.94;0.94;;;;;;;19.37;51.83;100561.22;;;;-57
2021/05/19 06:17:05;;;;;;;0.94;0.94;;;;;;;19.37;51.84;100564.88;;;;-52
2021/05/19 06:20:05;;;;;;;1.13;1.05;;;;;;;19.38;51.81;100568.88;;;;-51
2021/05/19 06:23:05;;;;;;;2.83;1.09;;;;;;;19.38;52.12;100568.20;;;;-57
2021/05/19 06:26:06;;;;;;;4.87;1.13;;;;;;;19.40;52.77;100576.70;;;;-62
2021/05/19 06:29:06;;;;;;;3.17;1.34;;;;;;;19.41;53.50;100579.30;;;;-61
2021/05/19 06:32:05;;;;;;;1.55;1.20;;;;;;;19.44;53.55;100584.86;;;;-54
2021/05/19 06:35:05;;;;;;;1.50;1.40;;;;;;;19.46;53.49;100585.59;;;;-53
2021/05/19 06:38:05;;;;;;;1.45;1.34;;;;;;;19.50;53.56;100588.55;;;;-56
2021/05/19 06:41:05;;;;;;;3.71;1.44;;;;;;;19.52;53.43;100585.96;;;;-57
2021/05/19 06:44:05;;;;;;;2.77;1.61;;;;;;;19.57;53.76;100585.13;;;;-58
2021/05/19 06:47:05;;;;;;;2.12;1.46;;;;;;;19.60;53.49;100586.11;;;;-60
2021/05/19 06:50:05;;;;;;;2.78;1.49;;;;;;;19.64;53.26;100584.84;;;;-55
2021/05/19 06:53:05;;;;;;;4.03;1.53;;;;;;;19.70;53.35;100581.88;;;;-57
2021/05/19 06:56:06;;;;;;;4.31;1.40;;;;;;;19.76;53.56;100584.56;;;;-56
2021/05/19 06:59:05;;;;;;;2.47;1.40;;;;;;;19.81;53.20;100584.50;;;;-49
2021/05/19 07:02:05;;;;;;;2.67;1.50;;;;;;;19.87;53.57;100589.51;;;;-51
2021/05/19 07:05:05;;;;;;;1.83;1.37;;;;;;;19.91;53.09;100592.95;;;;-51
2021/05/19 07:08:06;;;;;;;1.67;1.40;;;;;;;19.94;53.00;100594.59;;;;-57
2021/05/19 07:11:05;;;;;;;2.42;1.45;;;;;;;19.96;53.07;100591.38;;;;-51
2021/05/19 07:14:07;;;;;;;2.67;1.60;;;;;;;20.00;53.14;100597.97;;;;-58
2021/05/19 07:17:06;;;;;;;2.31;1.42;;;;;;;20.02;52.57;100601.39;;;;-58
2021/05/19 07:20:05;;;;;;;1.60;1.50;;;;;;;20.04;52.63;100604.17;;;;-52
2021/05/19 07:23:05;;;;;;;1.62;1.49;;;;;;;20.07;52.37;100605.43;;;;-60
2021/05/19 07:26:05;;;;;;;3.37;1.56;;;;;;;20.08;52.31;100605.17;;;;-54
2021/05/19 07:29:05;;;;;;;2.63;1.50;;;;;;;20.13;52.95;100603.67;;;;-54
2021/05/19 07:32:05;;;;;;;1.67;1.39;;;;;;;20.15;52.79;100606.78;;;;-53
2021/05/19 07:35:06;;;;;;;3.19;1.40;;;;;;;20.18;52.95;100607.44;;;;-52
2021/05/19 07:38:05;;;;;;;2.59;1.52;;;;;;;20.22;53.26;100609.66;;;;-52
2021/05/19 07:41:05;;;;;;;1.65;1.35;;;;;;;20.25;52.85;100607.80;;;;-49
2021/05/19 07:44:05;;;;;;;2.44;1.38;;;;;;;20.29;52.86;100610.91;;;;-58
2021/05/19 07:47:35;;;;;;;1.97;1.46;;;;;;;20.34;53.17;100616.48;;;;-60
2021/05/19 07:50:35;;;;;;;2.60;1.55;;;;;;;20.35;52.81;100612.16;;;;-54
2021/05/19 07:53:35;;;;;;;1.69;1.59;;;;;;;20.38;52.71;100614.72;;;;-54
2021/05/19 07:56:39;;;;;;;2.26;1.38;;;;;;;20.40;52.78;100613.10;;;;-55
2021/05/19 07:59:35;;;;;;;1.83;1.35;;;;;;;20.42;52.55;100613.77;;;;-56
2021/05/19 08:02:35;;;;;;;3.28;1.51;;;;;;;20.44;52.75;100613.94;;;;-49
2021/05/19 08:05:35;;;;;;;2.93;1.58;;;;;;;20.46;52.49;100620.53;;;;-55
2021/05/19 08:08:35;;;;;;;2.27;1.42;;;;;;;20.48;52.56;100619.70;;;;-52
2021/05/19 08:11:37;;;;;;;2.01;1.56;;;;;;;20.49;53.01;100619.23;;;;-52
2021/05/19 08:14:36;;;;;;;2.75;1.52;;;;;;;20.51;52.98;100616.07;;;;-55
2021/05/19 08:17:34;;;;;;;3.59;1.51;;;;;;;20.54;53.14;100620.72;;;;-54
2021/05/19 08:20:05;;;;;;;1.83;1.50;;;;;;;20.56;53.15;100618.36;;;;-51
2021/05/19 08:23:05;;;;;;;1.84;1.33;;;;;;;20.55;52.83;100609.17;;;;-53
2021/05/19 08:26:06;;;;;;;1.59;1.41;;;;;;;20.57;52.77;100608.38;;;;-50
2021/05/19 08:29:05;;;;;;;1.70;1.60;;;;;;;20.58;52.75;100604.55;;;;-51
2021/05/19 08:32:06;;;;;;;2.73;1.70;;;;;;;20.59;52.61;100602.46;;;;-52
2021/05/19 08:35:05;;;;;;;4.11;1.91;;;;;;;20.61;52.43;100600.11;;;;-52
2021/05/19 08:38:05;;;;;;;2.70;1.59;;;;;;;20.63;52.73;100602.39;;;;-54
2021/05/19 08:41:05;;;;;;;1.61;1.51;;;;;;;20.66;52.68;100600.27;;;;-54
2021/05/19 08:44:06;;;;;;;2.37;1.64;;;;;;;20.68;52.51;100592.15;;;;-54
2021/05/19 08:47:06;;;;;;;2.84;1.53;;;;;;;20.69;52.48;100599.50;;;;-52
2021/05/19 08:50:05;;;;;;;2.96;1.53;;;;;;;20.71;52.78;100595.67;;;;-54
2021/05/19 08:53:05;;;;;;;3.77;1.66;;;;;;;20.74;52.70;100592.25;;;;-52
2021/05/19 08:56:05;;;;;;;2.48;1.60;;;;;;;20.75;52.51;100595.69;;;;-54
2021/05/19 08:59:05;;;;;;;2.45;1.51;;;;;;;20.76;52.76;100596.00;;;;-51
2021/05/19 09:02:05;;;;;;;3.05;1.71;;;;;;;20.76;52.57;100594.37;;;;-53
2021/05/19 09:05:05;;;;;;;2.87;1.69;;;;;;;20.77;52.34;100593.71;;;;-53
2021/05/19 09:08:05;;;;;;;1.86;1.63;;;;;;;20.76;51.93;100595.02;;;;-53
2021/05/19 09:11:06;;;;;;;5.90;1.90;;;;;;;20.75;51.82;100587.62;;;;-52
2021/05/19 09:14:05;;;;;;;2.01;1.59;;;;;;;20.75;51.69;100590.86;;;;-52
2021/05/19 09:17:05;;;;;;;4.38;2.00;;;;;;;20.69;51.73;100588.09;;;;-52
2021/05/19 09:20:05;;;;;;;2.15;1.81;;;;;;;20.67;51.73;100586.05;;;;-52
2021/05/19 09:23:11;;;;;;;2.08;1.81;;;;;;;20.67;51.83;100582.77;;;;-53
2021/05/19 09:26:05;;;;;;;9.07;2.19;;;;;;;20.65;51.82;100574.94;;;;-55
2021/05/19 09:29:05;;;;;;;4.35;2.04;;;;;;;20.66;52.09;100572.11;;;;-52
2021/05/19 09:32:05;;;;;;;3.81;2.09;;;;;;;20.68;52.19;100569.83;;;;-52
2021/05/19 09:35:05;;;;;;;3.38;2.03;;;;;;;20.70;52.13;100581.81;;;;-53
2021/05/19 09:38:06;;;;;;;6.16;1.89;;;;;;;20.70;52.00;100572.45;;;;-45
2021/05/19 09:41:05;;;;;;;3.17;1.98;;;;;;;20.71;51.95;100570.27;;;;-55
2021/05/19 09:44:06;;;;;;;11.28;2.20;;;;;;;20.69;51.38;100573.27;;;;-52
2021/05/19 09:47:05;;;;;;;3.86;1.98;;;;;;;20.66;51.61;100571.21;;;;-48
2021/05/19 09:50:05;;;;;;;4.99;2.05;;;;;;;20.63;51.87;100571.30;;;;-57
2021/05/19 09:53:05;;;;;;;3.96;2.01;;;;;;;20.62;52.07;100566.72;;;;-54
2021/05/19 09:56:05;;;;;;;3.18;1.89;;;;;;;20.61;51.97;100567.92;;;;-54
2021/05/19 09:59:05;;;;;;;6.55;2.11;;;;;;;20.59;51.98;100560.94;;;;-57
2021/05/19 10:02:06;;;;;;;4.85;2.02;;;;;;;20.64;52.20;100567.22;;;;-52
2021/05/19 10:05:12;;;;;;;3.81;2.08;;;;;;;20.64;52.20;100562.81;;;;-52
2021/05/19 10:08:05;;;;;;;3.32;1.87;;;;;;;20.66;52.16;100561.52;;;;-53
2021/05/19 10:11:05;;;;;;;3.96;1.93;;;;;;;20.68;52.11;100561.61;;;;-48
2021/05/19 10:14:09;;;;;;;3.39;1.81;;;;;;;20.69;52.13;100561.27;;;;-52
2021/05/19 10:17:05;;;;;;;4.63;1.72;;;;;;;20.69;52.14;100556.81;;;;-57
2021/05/19 10:20:05;;;;;;;2.85;1.87;;;;;;;20.70;52.02;100551.34;;;;-52
2021/05/19 10:23:07;;;;;;;5.31;1.89;;;;;;;20.71;52.08;100551.29;;;;-49
2021/05/19 10:26:05;;;;;;;4.16;1.91;;;;;;;20.71;52.05;100549.74;;;;-54
2021/05/19 10:29:05;;;;;;;3.15;1.85;;;;;;;20.72;52.19;100542.64;;;;-62
2021/05/19 10:32:05;;;;;;;4.02;1.88;;;;;;;20.72;52.08;100539.96;;;;-58
2021/05/19 10:35:06;;;;;;;4.04;1.85;;;;;;;20.73;52.01;100537.10;;;;-57
2021/05/19 10:38:05;;;;;;;2.13;1.63;;;;;;;20.73;52.07;100528.95;;;;-55
2021/05/19 10:41:05;;;;;;;2.43;1.78;;;;;;;20.73;52.06;100526.45;;;;-51
2021/05/19 10:44:05;;;;;;;2.14;1.70;;;;;;;20.74;51.99;100526.37;;;;-49
2021/05/19 10:47:07;;;;;;;2.92;1.80;;;;;;;20.73;51.95;100518.31;;;;-51
2021/05/19 10:50:15;;;;;;;1.89;1.69;;;;;;;20.74;51.94;100509.98;;;;-51
2021/05/19 10:59:05;;;;;;;2.25;1.65;;;;;;;20.70;51.53;100494.10;;;;-52
2021/05/19 11:02:05;;;;;;;2.29;1.59;;;;;;;20.69;51.45;100487.17;;;;-51
2021/05/19 11:05:05;;;;;;;3.17;1.60;;;;;;;20.67;51.43;100478.53;;;;-51
2021/05/19 11:08:05;;;;;;;2.31;1.86;;;;;;;20.64;51.57;100472.83;;;;-51
2021/05/19 11:11:05;;;;;;;2.34;1.79;;;;;;;20.65;51.44;100477.66;;;;-60
2021/05/19 11:15:13;;;;;;;3.33;1.78;;;;;;;20.64;51.32;100469.98;;;;-60
2021/05/19 11:19:10;;;;;;;2.11;1.72;;;;;;;20.64;51.34;100469.74;;;;-59
2021/05/19 11:22:05;;;;;;;3.45;1.67;;;;;;;20.63;51.30;100471.95;;;;-59
2021/05/19 11:25:05;;;;;;;3.05;1.72;;;;;;;20.62;51.50;100462.73;;;;-57
2021/05/19 11:28:05;;;;;;;2.07;1.71;;;;;;;20.63;51.63;100464.84;;;;-54
2021/05/19 11:31:05;;;;;;;2.07;1.73;;;;;;;20.64;51.48;100462.98;;;;-54
2021/05/19 11:34:05;;;;;;;2.01;1.68;;;;;;;20.64;51.34;100462.66;;;;-53
2021/05/19 11:37:05;;;;;;;1.93;1.70;;;;;;;20.63;51.33;100460.28;;;;-54
2021/05/19 11:40:06;;;;;;;2.04;1.70;;;;;;;20.63;51.33;100459.14;;;;-54
2021/05/19 11:43:05;;;;;;;2.39;1.70;;;;;;;20.63;51.29;100454.75;;;;-54
2021/05/19 11:46:05;;;;;;;4.47;1.80;;;;;;;20.61;51.26;100453.70;;;;-54
2021/05/19 11:49:11;;;;;;;1.82;1.65;;;;;;;20.61;51.26;100452.24;;;;-54
2021/05/19 11:52:05;;;;;;;1.83;1.67;;;;;;;20.61;51.21;100440.91;;;;-54
2021/05/19 11:55:05;;;;;;;1.97;1.61;;;;;;;20.62;51.21;100441.25;;;;-53
2021/05/19 11:58:05;;;;;;;1.59;1.49;;;;;;;20.62;51.17;100445.64;;;;-54
2021/05/19 12:01:06;;;;;;;1.77;1.57;;;;;;;20.61;51.19;100444.11;;;;-54
2021/05/19 12:04:05;;;;;;;2.11;1.60;;;;;;;20.61;51.17;100435.64;;;;-54
2021/05/19 12:07:07;;;;;;;1.63;1.50;;;;;;;20.61;51.13;100438.56;;;;-54
2021/05/19 12:10:05;;;;;;;2.60;1.64;;;;;;;20.61;51.15;100433.91;;;;-54
2021/05/19 12:13:05;;;;;;;2.15;1.60;;;;;;;20.60;51.11;100431.30;;;;-55
2021/05/19 12:16:05;;;;;;;2.32;1.61;;;;;;;20.59;51.09;100432.61;;;;-54
2021/05/19 12:19:08;;;;;;;1.66;1.46;;;;;;;20.60;51.11;100432.84;;;;-54
2021/05/19 12:22:06;;;;;;;1.79;1.60;;;;;;;20.59;51.07;100427.08;;;;-54
2021/05/19 12:25:05;;;;;;;3.20;1.61;;;;;;;20.59;51.08;100421.79;;;;-55
2021/05/19 12:28:07;;;;;;;2.28;1.67;;;;;;;20.59;51.07;100420.89;;;;-55
2021/05/19 12:31:05;;;;;;;3.65;1.61;;;;;;;20.58;51.20;100422.98;;;;-57
2021/05/19 12:34:05;;;;;;;1.97;1.77;;;;;;;20.57;51.35;100425.01;;;;-53
2021/05/19 12:37:05;;;;;;;1.71;1.59;;;;;;;20.54;51.28;100423.63;;;;-54
2021/05/19 12:40:05;;;;;;;2.16;1.79;;;;;;;20.56;51.55;100421.09;;;;-53
2021/05/19 12:43:05;;;;;;;2.77;1.90;;;;;;;20.55;51.59;100417.11;;;;-51
2021/05/19 12:46:05;;;;;;;3.17;1.72;;;;;;;20.57;51.67;100413.63;;;;-54
2021/05/19 12:49:07;;;;;;;4.56;1.75;;;;;;;20.58;51.78;100409.48;;;;-53
2021/05/19 12:52:05;;;;;;;2.87;1.72;;;;;;;20.59;51.83;100407.47;;;;-56
2021/05/19 12:55:05;;;;;;;5.71;1.85;;;;;;;20.59;51.98;100409.01;;;;-53
2021/05/19 12:58:05;;;;;;;6.93;1.97;;;;;;;20.59;52.20;100407.38;;;;-59
2021/05/19 13:01:07;;;;;;;5.51;1.90;;;;;;;20.60;52.42;100407.77;;;;-56
2021/05/19 13:04:05;;;;;;;4.53;1.91;;;;;;;20.60;52.63;100415.18;;;;-57
2021/05/19 13:07:05;;;;;;;2.73;1.78;;;;;;;20.64;52.39;100414.78;;;;-60
2021/05/19 13:10:05;;;;;;;4.23;1.90;;;;;;;20.64;52.08;100412.50;;;;-58
2021/05/19 13:13:08;;;;;;;6.13;1.90;;;;;;;20.63;52.12;100413.00;;;;-53
2021/05/19 13:16:07;;;;;;;3.28;1.81;;;;;;;20.63;52.03;100414.46;;;;-55
2021/05/19 13:19:07;;;;;;;3.15;1.81;;;;;;;20.64;51.94;100419.02;;;;-54
2021/05/19 13:22:05;;;;;;;4.11;1.80;;;;;;;20.64;51.84;100422.19;;;;-51
2021/05/19 13:25:05;;;;;;;4.65;1.90;;;;;;;20.65;51.77;100422.83;;;;-50
2021/05/19 13:28:06;;;;;;;3.77;1.80;;;;;;;20.65;51.75;100419.20;;;;-51
2021/05/19 13:31:05;;;;;;;2.51;1.73;;;;;;;20.64;51.71;100419.01;;;;-50
2021/05/19 13:34:13;;;;;;;2.50;1.76;;;;;;;20.65;51.54;100421.15;;;;-50
2021/05/19 13:37:05;;;;;;;2.21;1.72;;;;;;;20.65;51.74;100426.27;;;;-51
2021/05/19 13:40:05;;;;;;;2.48;1.80;;;;;;;20.65;51.75;100449.41;;;;-54
2021/05/19 13:43:05;;;;;;;7.84;1.91;;;;;;;20.68;52.17;100458.59;;;;-56
2021/05/19 13:46:05;;;;;;;8.30;2.20;;;;;;;20.68;51.87;100466.57;;;;-57
2021/05/19 13:49:17;;;;;;;5.83;1.97;;;;;;;20.68;51.73;100473.73;;;;-56
2021/05/19 13:52:05;;;;;;;8.30;2.29;;;;;;;20.67;51.78;100488.14;;;;-51
2021/05/19 13:55:05;;;;;;;8.33;2.29;;;;;;;20.66;51.55;100497.92;;;;-50
2021/05/19 13:58:05;;;;;;;4.53;2.14;;;;;;;20.67;51.48;100503.77;;;;-50
2021/05/19 14:01:05;;;;;;;6.20;2.04;;;;;;;20.66;51.47;100510.63;;;;-50
2021/05/19 14:04:05;;;;;;;4.51;1.87;;;;;;;20.65;51.45;100512.27;;;;-52
2021/05/19 14:07:05;;;;;;;5.98;1.92;;;;;;;20.65;51.46;100518.75;;;;-50
2021/05/19 14:10:06;;;;;;;6.97;2.01;;;;;;;20.64;51.30;100520.06;;;;-50
2021/05/19 14:13:09;;;;;;;5.75;2.04;;;;;;;20.64;51.34;100523.89;;;;-50
2021/05/19 14:16:15;;;;;;;3.80;2.01;;;;;;;20.63;51.34;100525.21;;;;-50
2021/05/19 14:19:25;;;;;;;5.73;1.89;;;;;;;20.64;51.34;100527.16;;;;-50
2021/05/19 14:28:05;;;;;;;4.10;1.84;;;;;;;20.62;51.32;100533.00;;;;-50
2021/05/19 14:31:05;;;;;;;3.75;1.79;;;;;;;20.62;51.28;100533.66;;;;-50
2021/05/19 14:34:05;;;;;;;4.89;1.77;;;;;;;20.61;51.25;100532.36;;;;-50
2021/05/19 14:37:29;;;;;;;2.45;1.77;;;;;;;20.61;51.29;100536.11;;;;-51
2021/05/19 14:59:20;;;;;;;5.21;1.93;;;;;;;20.59;51.17;100522.92;;;;-52
2021/05/19 15:02:05;;;;;;;2.33;1.70;;;;;;;20.59;51.20;100531.45;;;;-52
2021/05/19 15:05:05;;;;;;;2.94;1.71;;;;;;;20.58;51.46;100527.45;;;;-53
2021/05/19 15:08:05;;;;;;;2.19;1.81;;;;;;;20.59;51.60;100526.66;;;;-57
2021/05/19 15:11:05;;;;;;;2.73;1.85;;;;;;;20.59;51.74;100527.72;;;;-58
2021/05/19 15:14:06;;;;;;;4.57;1.73;;;;;;;20.60;51.72;100529.58;;;;-53
2021/05/19 15:17:05;;;;;;;3.51;1.71;;;;;;;20.61;51.82;100535.52;;;;-53
2021/05/19 15:20:05;;;;;;;3.75;1.65;;;;;;;20.60;51.81;100534.79;;;;-56
2021/05/19 15:23:05;;;;;;;17.52;2.49;;;;;;;20.63;51.65;100539.22;;;;-53
2021/05/19 15:26:05;;;;;;;7.94;1.97;;;;;;;20.61;51.74;100536.59;;;;-59
2021/05/19 15:29:05;;;;;;;6.31;1.97;;;;;;;20.63;51.71;100535.80;;;;-56
2021/05/19 15:32:06;;;;;;;4.22;1.81;;;;;;;20.64;51.77;100538.06;;;;-60
2021/05/19 15:35:05;;;;;;;7.23;2.01;;;;;;;20.64;51.86;100537.66;;;;-60
2021/05/19 15:38:05;;;;;;;4.48;1.73;;;;;;;20.65;51.90;100540.27;;;;-55
2021/05/19 15:41:05;;;;;;;6.95;1.89;;;;;;;20.66;51.97;100543.03;;;;-53
2021/05/19 15:44:05;;;;;;;4.79;2.08;;;;;;;20.65;52.01;100533.52;;;;-56
2021/05/19 15:47:05;;;;;;;9.88;1.93;;;;;;;20.66;51.99;100530.81;;;;-54
2021/05/19 15:50:05;;;;;;;3.61;2.09;;;;;;;20.66;51.93;100531.80;;;;-54
2021/05/19 15:53:05;;;;;;;8.23;2.16;;;;;;;20.65;51.93;100524.39;;;;-55
2021/05/19 15:56:05;;;;;;;4.66;1.80;;;;;;;20.65;51.71;100526.27;;;;-51
2021/05/19 15:59:06;;;;;;;4.73;1.78;;;;;;;20.65;51.72;100529.77;;;;-54
2021/05/19 16:02:06;;;;;;;7.34;1.83;;;;;;;20.64;52.06;100525.77;;;;-59
2021/05/19 16:05:07;;;;;;;6.61;2.02;;;;;;;20.64;52.23;100521.61;;;;-55
2021/05/19 16:08:05;;;;;;;5.50;1.98;;;;;;;20.66;52.12;100521.21;;;;-52
2021/05/19 16:11:06;;;;;;;5.49;2.13;;;;;;;20.67;51.93;100516.09;;;;-58
2021/05/19 16:14:05;;;;;;;3.77;2.14;;;;;;;20.66;51.82;100517.38;;;;-51
2021/05/19 16:17:05;;;;;;;5.87;1.92;;;;;;;20.64;51.92;100519.58;;;;-55
2021/05/19 16:20:05;;;;;;;7.03;2.13;;;;;;;20.61;51.98;100514.70;;;;-54
2021/05/19 16:23:05;;;;;;;4.29;1.89;;;;;;;20.60;52.05;100518.67;;;;-55
2021/05/19 16:26:05;;;;;;;4.40;2.21;;;;;;;20.58;52.07;100513.45;;;;-54
2021/05/19 16:30:11;;;;;;;5.81;2.13;;;;;;;20.57;52.18;100514.81;;;;-53
2021/05/19 16:35:05;;;;;;;2.99;2.05;;;;;;;20.58;52.35;100522.54;;;;-48
2021/05/19 16:38:05;;;;;;;5.50;2.27;;;;;;;20.58;52.35;100519.07;;;;-49
2021/05/19 16:41:05;;;;;;;5.33;2.22;;;;;;;20.58;52.34;100523.30;;;;-51
2021/05/19 16:44:05;;;;;;;6.31;2.38;;;;;;;20.58;52.42;100522.16;;;;-51
2021/05/19 16:47:05;;;;;;;4.41;2.27;;;;;;;20.58;52.45;100526.72;;;;-50
2021/05/19 16:50:05;;;;;;;6.70;2.37;;;;;;;20.59;52.49;100526.02;;;;-52
2021/05/19 16:53:05;;;;;;;5.30;2.31;;;;;;;20.63;52.78;100530.26;;;;-60
2021/05/19 16:56:05;;;;;;;7.05;2.08;;;;;;;20.66;52.65;100528.05;;;;-57
2021/05/19 16:59:05;;;;;;;5.59;2.36;;;;;;;20.67;52.53;100531.41;;;;-51
2021/05/19 17:07:06;;;;;;;6.15;2.13;;;;;;;20.67;52.04;100534.50;;;;-52
2021/05/19 17:10:05;;;;;;;4.97;2.09;;;;;;;20.67;51.96;100536.67;;;;-53
2021/05/19 17:13:05;;;;;;;4.01;1.99;;;;;;;20.67;51.91;100536.53;;;;-52
2021/05/19 17:16:05;;;;;;;4.50;2.11;;;;;;;20.68;51.85;100539.30;;;;-51
2021/05/19 17:19:05;;;;;;;2.86;1.96;;;;;;;20.68;51.81;100536.37;;;;-51
2021/05/19 17:22:06;;;;;;;3.72;2.07;;;;;;;20.67;51.76;100535.89;;;;-52
2021/05/19 17:25:05;;;;;;;6.97;2.12;;;;;;;20.67;52.03;100534.88;;;;-57
2021/05/19 17:28:05;;;;;;;6.04;2.09;;;;;;;20.67;51.95;100534.33;;;;-52